Time;durP1;ratioP1;P1;durP2;ratioP2;P2;SDS_P1;SDS_P2;PMS_P1;PMS_P2;Temp;Humidity;BMP_temperature;BMP_pressure;BME280_temperature;BME280_humidity;BME280_pressure;Samples;Min_cycle;Max_cycle;Signal;HPM_P1;HPM_P2
2023/05/31 00:01:48;;;;;;;14.10;11.48;;;12.60;84.00;;;;;;5014896;28;20865;-76
2023/05/31 00:04:14;;;;;;;16.48;11.20;;;12.60;84.10;;;;;;5023176;28;20411;-76
2023/05/31 00:06:39;;;;;;;14.57;10.68;;;12.60;84.20;;;;;;5016621;28;20033;-76
2023/05/31 00:09:05;;;;;;;12.52;10.93;;;12.60;84.30;;;;;;5014171;28;20051;-77
2023/05/31 00:11:30;;;;;;;13.80;10.82;;;12.60;84.30;;;;;;5018415;28;20128;-76
2023/05/31 00:13:56;;;;;;;14.18;10.90;;;12.60;84.30;;;;;;5013316;28;20032;-76
2023/05/31 00:16:22;;;;;;;13.73;10.95;;;12.50;84.40;;;;;;5014602;28;20120;-76
2023/05/31 00:18:47;;;;;;;12.60;10.55;;;12.50;84.50;;;;;;5007146;28;20677;-76
2023/05/31 00:21:13;;;;;;;14.85;11.13;;;12.50;84.60;;;;;;5019730;28;20041;-76
2023/05/31 00:23:39;;;;;;;15.68;10.70;;;12.50;84.70;;;;;;5022242;28;20029;-76
2023/05/31 00:26:05;;;;;;;13.93;11.23;;;12.50;84.70;;;;;;5014516;28;20049;-76
2023/05/31 00:28:30;;;;;;;13.77;11.70;;;12.50;84.90;;;;;;5016585;28;20036;-76
2023/05/31 00:30:56;;;;;;;14.30;11.55;;;12.50;85.00;;;;;;5013000;28;20044;-76
2023/05/31 00:33:22;;;;;;;14.60;11.93;;;12.40;85.00;;;;;;5021555;28;20259;-76
2023/05/31 00:35:47;;;;;;;15.23;11.85;;;12.40;85.00;;;;;;5017158;28;20133;-76
2023/05/31 00:38:13;;;;;;;14.25;11.88;;;12.40;85.00;;;;;;5018497;28;20477;-76
2023/05/31 00:40:39;;;;;;;13.27;11.70;;;12.40;85.10;;;;;;5023326;28;20355;-76
2023/05/31 00:43:05;;;;;;;14.60;11.88;;;12.40;85.10;;;;;;5013221;28;20030;-77
2023/05/31 00:45:32;;;;;;;14.32;11.73;;;12.40;85.10;;;;;;5019579;28;20036;-75
2023/05/31 00:48:00;;;;;;;15.23;11.95;;;12.40;85.10;;;;;;5022509;28;20068;-75
2023/05/31 00:50:26;;;;;;;15.23;11.05;;;12.30;85.10;;;;;;5017248;28;20442;-76
2023/05/31 00:52:54;;;;;;;15.05;11.90;;;12.40;85.30;;;;;;5014679;28;20022;-76
2023/05/31 00:55:21;;;;;;;14.65;11.93;;;12.30;85.20;;;;;;5019398;28;20036;-76
2023/05/31 00:57:47;;;;;;;16.13;12.02;;;12.30;85.50;;;;;;5011192;28;20026;-76
2023/05/31 01:00:14;;;;;;;15.65;11.75;;;12.40;85.30;;;;;;5022319;28;20038;-76
2023/05/31 01:02:41;;;;;;;13.55;11.57;;;12.30;85.30;;;;;;5023820;28;20021;-76
2023/05/31 01:05:10;;;;;;;14.02;11.88;;;12.40;85.30;;;;;;5025844;28;20036;-76
2023/05/31 01:07:36;;;;;;;15.32;11.80;;;12.30;85.30;;;;;;5016930;28;20037;-76
2023/05/31 01:10:04;;;;;;;14.48;12.25;;;12.30;85.30;;;;;;5020675;28;20091;-76
2023/05/31 01:12:55;;;;;;;13.93;11.98;;;12.30;85.30;;;;;;5023088;28;20727;-76
2023/05/31 01:15:44;;;;;;;15.23;11.85;;;12.30;85.40;;;;;;5016517;28;20029;-76
2023/05/31 01:18:24;;;;;;;15.52;12.02;;;12.30;85.60;;;;;;5018543;28;20037;-76
2023/05/31 01:20:53;;;;;;;16.42;12.45;;;12.30;85.70;;;;;;5017785;28;20068;-76
2023/05/31 01:23:44;;;;;;;16.23;12.82;;;12.30;85.70;;;;;;5037090;28;20085;-76
2023/05/31 01:26:25;;;;;;;15.85;13.23;;;12.30;85.60;;;;;;5033333;28;20097;-76
2023/05/31 01:28:55;;;;;;;16.25;12.23;;;12.30;85.70;;;;;;5024509;28;20056;-75
2023/05/31 01:31:22;;;;;;;15.60;12.43;;;12.30;85.60;;;;;;5026540;28;20108;-77
2023/05/31 01:33:49;;;;;;;15.82;13.02;;;12.30;85.50;;;;;;5021641;28;20025;-76
2023/05/31 01:36:15;;;;;;;15.50;12.60;;;12.20;85.60;;;;;;5024693;28;20049;-76
2023/05/31 01:38:41;;;;;;;15.43;12.45;;;12.30;85.50;;;;;;5022719;28;20396;-76
2023/05/31 01:41:08;;;;;;;16.73;12.43;;;12.30;85.60;;;;;;5017074;28;20042;-76
2023/05/31 01:43:37;;;;;;;18.75;13.23;;;12.30;85.50;;;;;;5023064;28;20053;-76
2023/05/31 01:46:04;;;;;;;15.32;12.70;;;12.20;85.70;;;;;;5013419;28;20443;-76
2023/05/31 01:48:30;;;;;;;15.40;12.98;;;12.20;85.70;;;;;;5018883;28;20112;-76
2023/05/31 01:50:58;;;;;;;16.38;13.35;;;12.20;85.80;;;;;;5024710;28;20060;-76
2023/05/31 01:53:25;;;;;;;16.60;12.88;;;12.20;85.70;;;;;;5018217;28;20153;-76
2023/05/31 01:55:51;;;;;;;17.05;13.07;;;12.20;85.70;;;;;;5024916;28;20030;-76
2023/05/31 01:58:18;;;;;;;17.23;13.77;;;12.20;85.80;;;;;;5024772;28;20463;-76
2023/05/31 02:00:44;;;;;;;16.50;13.82;;;12.20;85.70;;;;;;5012325;28;20051;-76
2023/05/31 02:03:10;;;;;;;16.92;12.98;;;12.20;85.80;;;;;;5023296;28;20043;-75
2023/05/31 02:05:36;;;;;;;15.57;13.27;;;12.10;85.80;;;;;;5015821;28;20032;-76
2023/05/31 02:08:02;;;;;;;16.63;13.00;;;12.20;85.70;;;;;;5019297;28;20049;-75
2023/05/31 02:10:28;;;;;;;17.70;13.55;;;12.10;85.90;;;;;;5015670;28;20036;-74
2023/05/31 02:12:54;;;;;;;17.33;13.73;;;12.10;85.90;;;;;;5020604;28;20050;-75
2023/05/31 02:15:23;;;;;;;17.33;13.75;;;12.10;85.80;;;;;;5016150;28;20034;-75
2023/05/31 02:17:51;;;;;;;16.85;13.38;;;12.10;85.70;;;;;;5022042;28;20567;-75
2023/05/31 02:20:17;;;;;;;17.27;13.75;;;12.10;85.70;;;;;;5023822;28;20033;-75
2023/05/31 02:22:44;;;;;;;17.75;12.68;;;12.10;85.80;;;;;;5022093;28;20041;-75
2023/05/31 02:25:12;;;;;;;15.45;13.25;;;12.10;85.80;;;;;;5023573;28;20611;-76
2023/05/31 02:27:38;;;;;;;17.30;14.20;;;12.10;85.90;;;;;;5019451;28;20168;-75
2023/05/31 02:30:06;;;;;;;17.33;14.52;;;12.10;85.80;;;;;;5011808;28;20052;-75
2023/05/31 02:32:37;;;;;;;15.88;13.60;;;12.10;85.70;;;;;;5021719;28;20025;-76
2023/05/31 02:35:07;;;;;;;17.80;13.88;;;12.10;85.60;;;;;;5021938;28;20067;-75
2023/05/31 02:37:33;;;;;;;18.42;14.20;;;12.10;85.50;;;;;;5014727;28;20037;-75
2023/05/31 02:39:59;;;;;;;18.08;14.27;;;12.10;85.50;;;;;;5018149;28;20124;-75
2023/05/31 02:42:25;;;;;;;19.30;14.93;;;12.10;85.50;;;;;;5019059;28;20486;-76
2023/05/31 02:44:50;;;;;;;16.48;14.38;;;12.10;85.50;;;;;;5019398;28;20040;-75
2023/05/31 02:47:16;;;;;;;16.38;13.63;;;12.10;85.60;;;;;;5014107;28;20705;-76
2023/05/31 02:49:42;;;;;;;16.80;14.07;;;12.10;85.70;;;;;;5011388;28;20386;-76
2023/05/31 02:52:08;;;;;;;18.65;15.05;;;12.10;85.70;;;;;;5020595;28;20401;-75
2023/05/31 02:54:34;;;;;;;17.58;14.15;;;12.10;85.80;;;;;;5017219;28;20022;-76
2023/05/31 02:57:00;;;;;;;17.90;14.65;;;12.10;85.90;;;;;;5014549;28;20494;-75
2023/05/31 02:59:25;;;;;;;18.20;15.30;;;12.10;85.80;;;;;;5018105;28;20445;-76
2023/05/31 03:01:51;;;;;;;20.20;15.25;;;12.10;86.00;;;;;;5012035;28;20053;-75
2023/05/31 03:04:18;;;;;;;19.00;15.48;;;12.10;86.00;;;;;;5010213;28;20466;-75
2023/05/31 03:06:43;;;;;;;19.40;16.05;;;12.10;86.00;;;;;;5015319;28;20099;-75
2023/05/31 03:09:14;;;;;;;18.10;15.63;;;12.10;86.10;;;;;;5012921;28;20473;-75
2023/05/31 03:11:39;;;;;;;20.45;16.50;;;12.00;86.00;;;;;;5013867;28;20478;-75
2023/05/31 03:14:05;;;;;;;19.40;15.93;;;12.10;86.10;;;;;;5023213;28;20038;-75
2023/05/31 03:16:31;;;;;;;19.42;16.35;;;12.10;86.10;;;;;;5017756;28;20100;-76
2023/05/31 03:18:57;;;;;;;19.55;16.67;;;12.00;86.20;;;;;;5024173;28;20481;-75
2023/05/31 03:21:24;;;;;;;20.63;16.48;;;12.00;86.30;;;;;;5020093;28;20045;-75
2023/05/31 03:23:50;;;;;;;23.33;16.65;;;12.00;86.30;;;;;;5020428;28;20798;-75
2023/05/31 03:26:15;;;;;;;19.80;16.25;;;12.00;86.60;;;;;;5017988;28;20029;-75
2023/05/31 03:28:41;;;;;;;19.48;16.38;;;11.90;86.60;;;;;;5015104;28;20049;-76
2023/05/31 03:31:06;;;;;;;20.23;16.13;;;12.00;86.80;;;;;;5018553;28;20034;-76
2023/05/31 03:33:32;;;;;;;19.90;17.33;;;12.00;86.80;;;;;;5012740;28;20053;-75
2023/05/31 03:35:58;;;;;;;19.75;15.43;;;12.00;86.80;;;;;;5021244;28;20032;-75
2023/05/31 03:38:23;;;;;;;18.67;15.75;;;12.10;86.70;;;;;;5020631;28;20025;-75
2023/05/31 03:40:49;;;;;;;21.40;15.80;;;12.00;86.70;;;;;;5020412;28;20104;-75
2023/05/31 03:43:15;;;;;;;20.20;15.63;;;12.00;86.70;;;;;;5023273;28;20029;-76
2023/05/31 03:45:40;;;;;;;20.27;15.82;;;12.00;86.70;;;;;;5022945;28;20017;-75
2023/05/31 03:48:06;;;;;;;21.00;17.38;;;12.00;86.90;;;;;;5016812;28;20060;-75
2023/05/31 03:50:32;;;;;;;20.05;17.05;;;12.00;87.00;;;;;;5021009;28;20022;-76
2023/05/31 03:52:57;;;;;;;19.58;15.45;;;12.10;86.80;;;;;;5011499;28;20037;-76
2023/05/31 03:55:25;;;;;;;19.27;15.70;;;12.10;86.90;;;;;;5017594;28;20176;-76
2023/05/31 03:57:50;;;;;;;21.20;16.27;;;12.10;86.80;;;;;;5018743;28;20482;-76
2023/05/31 04:00:16;;;;;;;20.45;16.23;;;12.10;86.80;;;;;;5013725;28;20025;-76
2023/05/31 04:02:42;;;;;;;18.92;16.05;;;12.10;86.80;;;;;;5014918;28;20478;-76
2023/05/31 04:05:08;;;;;;;20.80;16.10;;;12.00;87.00;;;;;;5022585;28;20048;-76
2023/05/31 04:07:34;;;;;;;20.75;16.60;;;12.00;87.10;;;;;;5018001;28;20037;-76
2023/05/31 04:09:59;;;;;;;20.25;16.10;;;12.10;87.20;;;;;;5014151;28;20025;-76
2023/05/31 04:12:25;;;;;;;19.83;16.80;;;12.10;87.20;;;;;;5020973;28;20179;-76
2023/05/31 04:14:51;;;;;;;20.63;16.63;;;12.10;87.00;;;;;;5023994;28;20025;-76
2023/05/31 04:17:16;;;;;;;19.02;16.08;;;12.10;86.90;;;;;;5021447;28;20481;-76
2023/05/31 04:19:42;;;;;;;18.95;15.75;;;12.10;86.90;;;;;;5013944;28;20022;-76
2023/05/31 04:22:08;;;;;;;21.25;16.45;;;12.20;86.90;;;;;;5019224;28;20069;-76
2023/05/31 04:24:33;;;;;;;21.75;17.48;;;12.10;87.00;;;;;;5024072;28;20052;-75
2023/05/31 04:26:59;;;;;;;21.88;16.25;;;12.20;87.10;;;;;;5015320;28;20045;-76
2023/05/31 04:29:26;;;;;;;20.20;16.70;;;12.20;87.10;;;;;;5025211;28;20044;-76
2023/05/31 04:31:51;;;;;;;20.83;16.75;;;12.30;87.00;;;;;;5019199;28;20037;-76
2023/05/31 04:34:18;;;;;;;21.08;15.20;;;12.20;86.80;;;;;;5022402;28;20363;-76
2023/05/31 04:36:48;;;;;;;21.52;17.05;;;12.20;86.90;;;;;;5013621;28;20029;-76
2023/05/31 04:39:15;;;;;;;23.67;16.95;;;12.30;86.80;;;;;;5015745;28;20045;-76
2023/05/31 04:41:41;;;;;;;20.92;16.67;;;12.30;86.80;;;;;;5011444;28;20462;-76
2023/05/31 04:44:07;;;;;;;21.27;16.75;;;12.30;86.70;;;;;;5014853;28;20057;-76
2023/05/31 04:46:33;;;;;;;21.80;17.48;;;12.30;87.00;;;;;;5018367;28;20116;-76
2023/05/31 04:49:00;;;;;;;22.40;16.75;;;12.40;86.90;;;;;;5017157;28;20030;-75
2023/05/31 04:51:26;;;;;;;20.67;16.85;;;12.50;86.60;;;;;;5010747;28;20038;-76
2023/05/31 04:53:52;;;;;;;19.80;16.15;;;12.40;86.60;;;;;;5018064;28;20013;-76
2023/05/31 04:56:18;;;;;;;20.73;16.67;;;12.60;86.40;;;;;;5018267;28;20049;-75
2023/05/31 04:58:45;;;;;;;19.35;15.65;;;12.60;86.30;;;;;;5021715;28;20029;-76
2023/05/31 05:01:14;;;;;;;20.75;16.73;;;12.60;86.30;;;;;;5021343;28;20456;-76
2023/05/31 05:03:40;;;;;;;21.33;16.58;;;12.60;85.80;;;;;;5020794;28;20179;-75
2023/05/31 05:06:16;;;;;;;17.92;15.63;;;12.60;86.00;;;;;;5019040;28;20500;-76
2023/05/31 05:08:51;;;;;;;22.85;16.00;;;12.60;85.80;;;;;;5016317;28;20500;-76
2023/05/31 05:11:16;;;;;;;20.05;15.75;;;12.80;85.70;;;;;;5016388;28;20034;-76
2023/05/31 05:13:43;;;;;;;21.63;15.85;;;12.80;85.40;;;;;;5019455;28;20064;-75
2023/05/31 05:16:08;;;;;;;18.50;13.93;;;13.50;84.90;;;;;;5014562;28;20064;-76
2023/05/31 05:18:34;;;;;;;16.75;12.25;;;14.60;81.80;;;;;;5009112;28;20498;-76
2023/05/31 05:21:00;;;;;;;15.75;11.60;;;15.70;76.80;;;;;;5016163;28;20096;-76
2023/05/31 05:23:26;;;;;;;14.15;11.23;;;16.70;72.90;;;;;;5010358;28;20418;-75
2023/05/31 05:25:52;;;;;;;13.95;10.93;;;17.30;70.40;;;;;;5015370;28;20121;-75
2023/05/31 05:28:17;;;;;;;15.65;10.50;;;17.50;67.70;;;;;;5018893;28;20116;-75
2023/05/31 05:30:44;;;;;;;14.98;11.13;;;17.00;69.50;;;;;;5018754;28;20129;-76
2023/05/31 05:33:10;;;;;;;13.90;11.02;;;17.90;68.30;;;;;;5016323;28;20060;-75
2023/05/31 05:35:36;;;;;;;15.35;10.63;;;18.30;66.40;;;;;;5025260;28;20021;-75
2023/05/31 05:38:01;;;;;;;15.43;10.82;;;18.50;64.40;;;;;;5018318;28;20549;-75
2023/05/31 05:40:27;;;;;;;14.70;11.23;;;18.00;66.10;;;;;;5021750;28;20064;-75
2023/05/31 05:42:53;;;;;;;13.60;11.45;;;17.70;66.80;;;;;;5020971;28;20049;-76
2023/05/31 05:45:19;;;;;;;16.48;11.82;;;16.90;68.80;;;;;;5024212;28;20478;-74
2023/05/31 05:47:45;;;;;;;15.88;11.80;;;16.90;70.40;;;;;;5015710;28;20040;-74
2023/05/31 05:50:12;;;;;;;15.10;12.00;;;16.90;68.80;;;;;;5019078;28;20461;-75
2023/05/31 05:52:38;;;;;;;15.43;12.10;;;17.00;68.60;;;;;;5018799;28;20261;-75
2023/05/31 05:55:04;;;;;;;18.70;13.80;;;16.50;70.30;;;;;;5015983;28;20028;-75
2023/05/31 05:57:30;;;;;;;17.55;13.52;;;15.50;73.60;;;;;;5010897;28;20042;-76
2023/05/31 05:59:59;;;;;;;18.08;13.80;;;15.30;75.50;;;;;;5016083;28;20037;-76
2023/05/31 06:02:25;;;;;;;20.88;14.70;;;15.00;76.40;;;;;;5017006;28;20091;-76
2023/05/31 06:04:51;;;;;;;19.67;13.95;;;14.80;77.30;;;;;;5010720;28;20125;-76
2023/05/31 06:07:17;;;;;;;17.50;14.13;;;14.80;77.50;;;;;;5008197;28;20042;-76
2023/05/31 06:09:43;;;;;;;21.35;14.82;;;14.90;77.40;;;;;;5015866;28;20017;-75
2023/05/31 06:12:09;;;;;;;18.20;14.43;;;14.80;77.90;;;;;;5017739;28;20054;-76
2023/05/31 06:14:35;;;;;;;20.73;14.93;;;14.70;78.20;;;;;;5014182;28;20026;-74
2023/05/31 06:17:01;;;;;;;17.40;14.98;;;14.60;78.20;;;;;;5023183;28;20430;-76
2023/05/31 06:19:26;;;;;;;22.05;14.77;;;14.80;78.30;;;;;;5020278;28;20030;-77
2023/05/31 06:21:56;;;;;;;19.48;14.95;;;15.10;77.60;;;;;;5021856;28;20374;-75
2023/05/31 06:24:21;;;;;;;18.58;15.07;;;15.10;77.00;;;;;;5021261;28;20024;-75
2023/05/31 06:26:47;;;;;;;20.13;14.07;;;15.00;77.10;;;;;;5022370;28;20029;-71
2023/05/31 06:29:13;;;;;;;17.27;13.48;;;15.10;77.40;;;;;;5021491;28;20055;-74
2023/05/31 06:31:39;;;;;;;20.80;14.18;;;15.20;76.50;;;;;;5013915;28;20036;-76
2023/05/31 06:34:05;;;;;;;20.73;14.73;;;15.20;76.40;;;;;;5012140;28;20909;-74
2023/05/31 06:36:31;;;;;;;20.85;14.50;;;15.20;76.40;;;;;;5016422;28;20042;-75
2023/05/31 06:38:57;;;;;;;19.85;14.35;;;15.20;76.60;;;;;;5019849;28;20032;-74
2023/05/31 06:41:26;;;;;;;18.58;14.40;;;15.40;76.60;;;;;;5017097;28;20617;-74
2023/05/31 06:43:51;;;;;;;20.90;13.68;;;15.40;76.20;;;;;;5025378;28;20108;-74
2023/05/31 06:46:17;;;;;;;19.52;13.70;;;15.50;75.80;;;;;;5015268;28;20566;-76
2023/05/31 06:48:43;;;;;;;16.90;13.07;;;15.60;75.80;;;;;;5007102;28;20084;-74
2023/05/31 06:51:09;;;;;;;19.40;14.00;;;15.60;76.00;;;;;;5011283;28;20045;-74
2023/05/31 06:53:35;;;;;;;19.48;14.35;;;15.70;75.70;;;;;;5024909;28;20034;-75
2023/05/31 06:56:00;;;;;;;19.17;14.27;;;15.90;75.10;;;;;;5022088;28;20064;-77
2023/05/31 06:58:31;;;;;;;19.40;13.80;;;16.00;74.30;;;;;;5017324;28;20310;-76
2023/05/31 07:00:57;;;;;;;21.75;13.85;;;16.00;74.70;;;;;;5029122;28;20478;-75
2023/05/31 07:03:23;;;;;;;17.80;13.82;;;16.10;74.00;;;;;;5024443;28;20029;-76
2023/05/31 07:05:48;;;;;;;17.98;14.07;;;16.10;73.80;;;;;;5014548;28;20395;-73
2023/05/31 07:08:17;;;;;;;18.17;13.32;;;16.30;73.20;;;;;;5018299;28;20482;-76
2023/05/31 07:10:45;;;;;;;18.42;13.98;;;16.50;73.70;;;;;;5021582;28;20033;-75
2023/05/31 07:13:10;;;;;;;17.73;13.52;;;16.60;73.00;;;;;;5022215;28;20064;-75
2023/05/31 07:15:36;;;;;;;19.35;13.40;;;16.60;72.90;;;;;;5021491;28;20025;-73
2023/05/31 07:18:02;;;;;;;20.40;14.02;;;16.80;72.30;;;;;;5015013;28;20509;-76
2023/05/31 07:20:28;;;;;;;20.45;15.05;;;17.00;72.50;;;;;;5018302;28;20642;-75
2023/05/31 07:22:53;;;;;;;20.58;14.73;;;17.00;71.80;;;;;;5022788;28;20148;-73
2023/05/31 07:25:19;;;;;;;21.55;16.67;;;17.10;72.50;;;;;;5010698;28;20030;-75
2023/05/31 07:27:45;;;;;;;21.80;17.27;;;17.00;73.30;;;;;;5016849;28;20030;-75
2023/05/31 07:30:11;;;;;;;22.10;16.88;;;17.10;71.80;;;;;;5021131;28;20029;-76
2023/05/31 07:32:37;;;;;;;20.55;16.48;;;17.20;72.20;;;;;;5016148;28;20042;-75
2023/05/31 07:35:03;;;;;;;22.08;16.77;;;17.20;71.40;;;;;;5016597;28;20029;-76
2023/05/31 07:37:29;;;;;;;22.65;16.45;;;17.40;71.40;;;;;;5013881;28;20121;-75
2023/05/31 07:39:54;;;;;;;21.63;15.98;;;17.40;71.10;;;;;;5015947;28;20033;-74
2023/05/31 07:42:20;;;;;;;22.05;17.85;;;17.50;71.00;;;;;;5018758;28;20601;-75
2023/05/31 07:44:48;;;;;;;21.38;16.90;;;17.40;70.70;;;;;;5010292;28;20037;-75
2023/05/31 07:47:15;;;;;;;21.10;15.77;;;17.20;71.10;;;;;;5020153;28;20084;-76
2023/05/31 07:49:41;;;;;;;20.63;15.68;;;17.40;71.10;;;;;;5015802;28;20026;-75
2023/05/31 07:52:08;;;;;;;21.52;15.30;;;17.50;71.10;;;;;;5015589;28;20045;-75
2023/05/31 07:54:34;;;;;;;18.77;14.85;;;17.60;70.10;;;;;;5017728;28;20029;-75
2023/05/31 07:57:00;;;;;;;19.77;14.98;;;18.00;70.10;;;;;;5008853;28;20034;-74
2023/05/31 07:59:26;;;;;;;18.75;14.25;;;17.90;69.40;;;;;;5021373;28;20225;-76
2023/05/31 08:01:52;;;;;;;21.48;13.55;;;17.80;70.10;;;;;;5022404;28;20045;-74
2023/05/31 08:04:18;;;;;;;19.63;14.55;;;18.10;70.60;;;;;;5021100;28;20014;-74
2023/05/31 08:06:44;;;;;;;19.63;14.90;;;18.30;68.50;;;;;;5021970;28;20460;-74
2023/05/31 08:09:09;;;;;;;20.65;14.68;;;18.30;68.90;;;;;;5021805;28;20048;-73
2023/05/31 08:11:36;;;;;;;22.52;15.13;;;18.40;68.70;;;;;;5022492;28;20048;-74
2023/05/31 08:14:03;;;;;;;19.98;15.45;;;18.60;68.20;;;;;;5010342;28;20061;-74
2023/05/31 08:16:29;;;;;;;18.90;13.90;;;18.40;67.70;;;;;;5021269;28;20037;-75
2023/05/31 08:18:55;;;;;;;24.85;14.50;;;18.60;68.00;;;;;;5021473;28;20036;-74
2023/05/31 08:21:21;;;;;;;22.45;13.60;;;18.70;67.60;;;;;;5023296;28;20113;-77
2023/05/31 08:23:47;;;;;;;21.88;14.07;;;19.00;66.90;;;;;;5010822;28;20025;-76
2023/05/31 08:26:13;;;;;;;19.20;13.38;;;19.00;66.20;;;;;;5005504;28;20084;-76
2023/05/31 08:28:38;;;;;;;21.30;13.90;;;19.00;66.50;;;;;;5008420;28;20141;-75
2023/05/31 08:31:04;;;;;;;20.80;13.77;;;19.40;67.20;;;;;;5012135;28;20154;-76
2023/05/31 08:33:31;;;;;;;18.35;13.35;;;19.10;64.90;;;;;;5020843;28;20037;-75
2023/05/31 08:35:59;;;;;;;21.67;13.15;;;19.10;64.60;;;;;;5012178;28;21431;-75
2023/05/31 08:38:28;;;;;;;18.85;13.90;;;19.00;65.40;;;;;;5021348;28;20117;-76
2023/05/31 08:40:56;;;;;;;18.67;13.65;;;19.30;65.20;;;;;;5022445;28;20022;-75
2023/05/31 08:43:25;;;;;;;20.98;14.07;;;19.40;65.30;;;;;;5014539;28;20113;-75
2023/05/31 08:45:51;;;;;;;17.60;13.25;;;19.10;65.50;;;;;;5013392;28;20034;-76
2023/05/31 08:48:45;;;;;;;22.75;13.63;;;19.50;65.40;;;;;;5020419;28;20034;-75
2023/05/31 08:51:13;;;;;;;17.60;13.00;;;19.70;64.60;;;;;;5022421;28;20029;-75
2023/05/31 08:53:40;;;;;;;17.27;12.35;;;20.00;63.50;;;;;;5018549;28;20022;-76
2023/05/31 08:56:08;;;;;;;19.48;13.25;;;20.20;64.20;;;;;;5018771;28;20054;-73
2023/05/31 08:58:35;;;;;;;18.65;13.25;;;20.10;62.70;;;;;;5031601;28;20060;-75
2023/05/31 09:01:02;;;;;;;17.75;12.65;;;20.10;62.80;;;;;;5027232;28;20044;-76
2023/05/31 09:03:28;;;;;;;21.10;12.93;;;20.10;63.40;;;;;;5039616;28;20533;-77
2023/05/31 09:05:55;;;;;;;18.48;12.18;;;20.10;62.30;;;;;;5039687;28;20105;-74
2023/05/31 09:08:21;;;;;;;16.83;12.25;;;20.30;62.50;;;;;;5030749;28;20033;-73
2023/05/31 09:10:47;;;;;;;21.65;13.20;;;20.50;62.30;;;;;;5035985;28;20022;-74
2023/05/31 09:13:13;;;;;;;18.80;12.48;;;20.30;61.30;;;;;;5034051;28;20041;-73
2023/05/31 09:15:41;;;;;;;19.23;12.60;;;20.40;62.30;;;;;;5036588;28;20037;-73
2023/05/31 09:18:20;;;;;;;18.17;11.30;;;20.50;61.80;;;;;;5039923;28;20030;-75
2023/05/31 09:20:48;;;;;;;20.63;12.93;;;20.50;61.80;;;;;;5032058;28;20029;-74
2023/05/31 09:23:14;;;;;;;17.45;12.05;;;20.60;61.30;;;;;;5042715;28;20029;-74
2023/05/31 09:25:48;;;;;;;22.85;13.65;;;20.50;61.00;;;;;;5032003;28;20025;-76
2023/05/31 09:28:16;;;;;;;21.55;12.35;;;20.50;60.50;;;;;;5044784;28;20044;-74
2023/05/31 09:30:42;;;;;;;18.25;13.45;;;20.70;61.80;;;;;;5041055;28;20029;-75
2023/05/31 09:33:08;;;;;;;20.10;13.32;;;20.90;61.50;;;;;;5044180;28;20033;-74
2023/05/31 09:35:34;;;;;;;22.80;12.85;;;21.10;60.40;;;;;;5043853;28;20048;-74
2023/05/31 09:38:07;;;;;;;20.33;13.07;;;21.20;60.60;;;;;;5037070;28;20049;-74
2023/05/31 09:40:33;;;;;;;20.92;12.43;;;21.20;58.90;;;;;;5035163;28;20029;-76
2023/05/31 09:43:00;;;;;;;18.70;12.18;;;21.20;59.20;;;;;;5040260;28;20508;-75
2023/05/31 09:45:28;;;;;;;22.17;12.73;;;21.40;59.10;;;;;;5042142;28;20037;-74
2023/05/31 09:47:54;;;;;;;19.63;13.55;;;21.60;59.00;;;;;;5037572;28;20051;-74
2023/05/31 09:50:21;;;;;;;19.23;13.15;;;21.50;58.40;;;;;;5045260;28;20037;-76
2023/05/31 09:52:49;;;;;;;20.02;12.68;;;21.60;58.90;;;;;;5042446;28;20083;-77
2023/05/31 09:55:16;;;;;;;20.73;12.60;;;21.90;58.90;;;;;;5042956;28;20029;-75
2023/05/31 09:57:43;;;;;;;19.63;12.25;;;22.10;57.50;;;;;;5043267;28;20046;-76
2023/05/31 10:00:20;;;;;;;18.75;11.60;;;21.90;55.50;;;;;;5029756;28;20024;-75
2023/05/31 10:02:51;;;;;;;16.88;12.50;;;21.70;56.10;;;;;;5037878;28;20820;-75
2023/05/31 10:05:18;;;;;;;20.35;11.30;;;21.60;57.10;;;;;;5036314;28;20033;-74
2023/05/31 10:07:47;;;;;;;18.63;11.40;;;21.80;57.30;;;;;;5039936;28;20033;-75
2023/05/31 10:10:13;;;;;;;21.85;11.73;;;21.60;55.90;;;;;;5042260;28;20033;-74
2023/05/31 10:12:53;;;;;;;17.85;11.23;;;21.60;56.40;;;;;;5040414;28;20214;-74
2023/05/31 10:15:26;;;;;;;18.95;12.80;;;21.70;56.60;;;;;;5042712;28;20040;-75
2023/05/31 10:18:02;;;;;;;22.10;13.32;;;21.70;57.40;;;;;;5043727;28;20150;-75
2023/05/31 10:20:54;;;;;;;18.23;12.85;;;21.80;57.50;;;;;;5040613;28;20029;-75
2023/05/31 10:23:24;;;;;;;19.63;13.25;;;22.10;57.50;;;;;;5044052;28;20079;-74
2023/05/31 10:26:17;;;;;;;20.70;12.18;;;22.00;56.40;;;;;;5036894;28;20592;-74
2023/05/31 10:28:59;;;;;;;20.88;11.80;;;22.30;56.10;;;;;;5037810;28;20043;-76
2023/05/31 10:31:36;;;;;;;19.67;10.23;;;22.60;55.50;;;;;;5035483;28;20037;-75
2023/05/31 10:34:23;;;;;;;17.85;9.88;;;22.80;52.90;;;;;;5031407;28;20400;-75
2023/05/31 10:36:51;;;;;;;19.23;11.27;;;22.40;52.10;;;;;;5027119;28;20040;-75
2023/05/31 10:39:26;;;;;;;17.17;10.73;;;22.20;54.60;;;;;;5024670;28;20068;-75
2023/05/31 10:42:18;;;;;;;22.95;10.63;;;22.60;54.10;;;;;;5027273;28;20132;-76
2023/05/31 10:45:05;;;;;;;15.48;10.65;;;22.90;52.60;;;;;;5020356;28;20045;-76
2023/05/31 10:47:45;;;;;;;18.23;10.73;;;22.60;52.90;;;;;;5029376;28;20037;-76
2023/05/31 10:50:18;;;;;;;20.02;11.27;;;23.00;53.60;;;;;;5028214;28;20033;-74
2023/05/31 10:52:47;;;;;;;18.30;10.45;;;23.30;52.70;;;;;;5028687;28;20044;-76
2023/05/31 10:55:23;;;;;;;19.17;10.98;;;23.30;52.80;;;;;;5030214;28;20039;-77
2023/05/31 10:57:56;;;;;;;17.50;9.30;;;23.50;52.90;;;;;;5026821;28;20068;-75
2023/05/31 11:00:25;;;;;;;14.35;9.27;;;23.30;52.10;;;;;;5028127;28;20025;-75
2023/05/31 11:02:58;;;;;;;14.98;9.43;;;23.00;52.00;;;;;;5031076;28;20098;-74
2023/05/31 11:05:26;;;;;;;15.40;8.90;;;23.40;51.60;;;;;;5026256;28;20367;-74
2023/05/31 11:07:53;;;;;;;16.17;9.27;;;23.60;50.90;;;;;;5027117;28;20457;-75
2023/05/31 11:10:29;;;;;;;14.95;8.23;;;23.60;51.40;;;;;;5028542;28;20139;-76
2023/05/31 11:13:03;;;;;;;15.13;8.20;;;23.70;49.40;;;;;;5029486;28;20092;-74
2023/05/31 11:15:40;;;;;;;16.67;9.00;;;24.00;48.30;;;;;;5034255;28;20379;-75
2023/05/31 11:18:09;;;;;;;18.02;10.32;;;24.30;48.60;;;;;;5027573;28;20124;-75
2023/05/31 11:20:38;;;;;;;15.00;9.68;;;24.30;49.00;;;;;;5027478;28;20445;-75
2023/05/31 11:23:23;;;;;;;17.95;9.68;;;24.00;47.60;;;;;;5012275;28;20044;-75
2023/05/31 11:26:07;;;;;;;15.15;9.30;;;23.80;49.60;;;;;;5015486;28;20031;-75
2023/05/31 11:28:57;;;;;;;17.58;9.70;;;23.90;50.50;;;;;;5019675;28;20056;-74
2023/05/31 11:31:59;;;;;;;18.40;8.88;;;24.20;50.10;;;;;;5022312;28;20447;-74
2023/05/31 11:34:29;;;;;;;18.75;10.00;;;24.60;47.20;;;;;;5000575;28;20034;-74
2023/05/31 11:37:03;;;;;;;14.15;8.85;;;24.00;48.90;;;;;;5011325;28;20123;-73
2023/05/31 11:39:29;;;;;;;18.02;9.18;;;24.60;49.30;;;;;;5020949;28;20033;-74
2023/05/31 11:41:56;;;;;;;17.05;9.48;;;24.10;48.70;;;;;;5031797;28;20041;-78
2023/05/31 11:44:30;;;;;;;14.88;8.57;;;24.10;49.60;;;;;;5027015;28;20489;-74
2023/05/31 11:47:05;;;;;;;13.45;7.95;;;24.50;47.90;;;;;;5026186;28;20037;-75
2023/05/31 11:49:33;;;;;;;15.15;8.57;;;24.50;46.50;;;;;;5034937;28;20056;-72
2023/05/31 11:51:59;;;;;;;15.75;8.73;;;24.10;46.80;;;;;;5035249;28;20144;-76
2023/05/31 11:54:30;;;;;;;16.75;8.90;;;24.40;46.10;;;;;;5036738;28;20025;-76
2023/05/31 11:57:09;;;;;;;21.23;8.85;;;24.30;46.70;;;;;;5036148;28;20029;-83
2023/05/31 11:59:36;;;;;;;15.40;9.10;;;24.30;46.00;;;;;;5036220;28;20477;-78
2023/05/31 12:02:04;;;;;;;17.02;9.77;;;24.10;46.50;;;;;;5033717;28;20048;-79
2023/05/31 12:04:30;;;;;;;18.92;10.90;;;23.90;47.60;;;;;;5035263;28;20029;-79
2023/05/31 12:06:56;;;;;;;17.35;9.90;;;24.00;48.20;;;;;;5039409;28;20048;-81
2023/05/31 12:09:26;;;;;;;18.67;8.75;;;24.00;49.10;;;;;;5033479;28;20083;-80
2023/05/31 12:11:53;;;;;;;19.50;9.80;;;24.10;48.00;;;;;;5036729;28;20072;-79
2023/05/31 12:14:19;;;;;;;16.67;8.65;;;24.00;47.60;;;;;;5035822;28;20027;-79
2023/05/31 12:16:49;;;;;;;19.60;9.27;;;24.00;47.80;;;;;;5043045;28;20033;-79
2023/05/31 12:19:15;;;;;;;15.48;8.63;;;24.30;48.30;;;;;;5039507;28;20493;-79
2023/05/31 12:21:41;;;;;;;14.50;8.63;;;24.50;46.50;;;;;;5031836;28;20047;-81
2023/05/31 12:24:17;;;;;;;18.08;9.38;;;24.60;47.60;;;;;;5042496;28;20116;-78
2023/05/31 12:26:44;;;;;;;15.55;8.63;;;24.80;46.60;;;;;;5037887;28;20393;-78
2023/05/31 12:29:17;;;;;;;14.98;9.15;;;24.60;48.00;;;;;;5040842;28;20037;-79
2023/05/31 12:31:43;;;;;;;15.80;9.00;;;24.60;47.10;;;;;;5028210;28;20037;-81
2023/05/31 12:34:11;;;;;;;15.55;9.40;;;24.60;46.90;;;;;;5041095;28;20044;-79